Time;durP1;ratioP1;P1;durP2;ratioP2;P2;SDS_P1;SDS_P2;PMS_P1;PMS_P2;Temp;Humidity;BMP_temperature;BMP_pressure;BME280_temperature;BME280_humidity;BME280_pressure;Samples;Min_cycle;Max_cycle;Signal;HPM_P1;HPM_P2
2022/03/19 00:00:42;;;;;;;0.25;0.25;;;;;;;;;;5081865;28;20032;-78
2022/03/19 00:03:08;;;;;;;0.10;0.10;;;;;;;;;;5082703;28;20023;-78
2022/03/19 00:05:34;;;;;;;0.35;0.35;;;;;;;;;;5081854;28;20024;-79
2022/03/19 00:08:01;;;;;;;0.10;0.10;;;;;;;;;;5074624;28;20028;-78
2022/03/19 00:10:27;;;;;;;0.10;0.10;;;;;;;;;;5081477;28;20028;-78
2022/03/19 00:12:53;;;;;;;6.63;2.47;;;;;;;;;;5083680;28;20039;-79
2022/03/19 00:15:19;;;;;;;5.20;2.85;;;;;;;;;;5082812;28;20047;-79
2022/03/19 00:17:46;;;;;;;0.20;0.20;;;;;;;;;;5082745;28;20021;-78
2022/03/19 00:20:12;;;;;;;0.10;0.10;;;;;;;;;;5078948;28;20093;-78
2022/03/19 00:22:39;;;;;;;0.65;0.65;;;;;;;;;;5087433;28;20024;-78
2022/03/19 00:25:05;;;;;;;0.17;0.17;;;;;;;;;;5081700;28;20070;-78
2022/03/19 00:27:31;;;;;;;2.00;1.17;;;;;;;;;;5078917;28;20379;-78
2022/03/19 00:29:57;;;;;;;0.43;0.43;;;;;;;;;;5081266;28;20070;-79
2022/03/19 00:32:23;;;;;;;0.57;0.57;;;;;;;;;;5081937;28;20074;-79
2022/03/19 00:34:49;;;;;;;0.10;0.10;;;;;;;;;;5080315;28;20120;-78
2022/03/19 00:37:15;;;;;;;0.10;0.10;;;;;;;;;;5087648;28;20376;-79
2022/03/19 00:39:41;;;;;;;1.77;0.90;;;;;;;;;;5078153;28;20020;-78
2022/03/19 00:42:07;;;;;;;0.13;0.13;;;;;;;;;;5071390;28;20025;-79
2022/03/19 00:44:33;;;;;;;0.10;0.10;;;;;;;;;;5082243;28;20029;-79
2022/03/19 00:46:59;;;;;;;1.02;0.88;;;;;;;;;;5080434;28;20471;-79
2022/03/19 00:49:25;;;;;;;0.25;0.25;;;;;;;;;;5087860;28;20031;-78
2022/03/19 00:51:51;;;;;;;0.10;0.10;;;;;;;;;;5085586;28;20059;-79
2022/03/19 00:54:17;;;;;;;0.73;0.50;;;;;;;;;;5082532;28;20028;-79
2022/03/19 00:56:45;;;;;;;0.10;0.10;;;;;;;;;;5077288;28;20493;-79
2022/03/19 00:59:11;;;;;;;0.10;0.10;;;;;;;;;;5083533;28;20130;-79
2022/03/19 01:01:37;;;;;;;0.43;0.43;;;;;;;;;;5073545;28;20039;-79
2022/03/19 01:04:04;;;;;;;3.08;1.27;;;;;;;;;;5086679;28;20479;-79
2022/03/19 01:06:30;;;;;;;0.35;0.35;;;;;;;;;;5086283;28;20052;-78
2022/03/19 01:08:56;;;;;;;0.77;0.77;;;;;;;;;;5074050;28;20028;-79
2022/03/19 01:11:23;;;;;;;3.40;0.98;;;;;;;;;;5077424;28;20032;-79
2022/03/19 01:13:50;;;;;;;0.10;0.10;;;;;;;;;;5073950;28;20032;-78
2022/03/19 01:16:18;;;;;;;0.22;0.22;;;;;;;;;;5077681;28;20031;-79
2022/03/19 01:18:45;;;;;;;0.38;0.38;;;;;;;;;;5082826;28;20471;-79
2022/03/19 01:21:11;;;;;;;0.10;0.10;;;;;;;;;;5082019;28;20265;-79
2022/03/19 01:23:36;;;;;;;1.27;1.25;;;;;;;;;;5074297;28;20541;-79
2022/03/19 01:26:02;;;;;;;0.25;0.25;;;;;;;;;;5084171;28;20111;-78
2022/03/19 01:28:28;;;;;;;0.25;0.25;;;;;;;;;;5084104;28;20510;-79
2022/03/19 01:30:54;;;;;;;0.30;0.30;;;;;;;;;;5074088;28;20072;-79
2022/03/19 01:33:20;;;;;;;0.75;0.55;;;;;;;;;;5080386;28;20028;-79
2022/03/19 01:35:46;;;;;;;0.10;0.10;;;;;;;;;;5075317;28;20031;-79
2022/03/19 01:38:12;;;;;;;0.40;0.40;;;;;;;;;;5071076;28;20029;-79
2022/03/19 01:40:38;;;;;;;0.20;0.20;;;;;;;;;;5075267;28;20024;-79
2022/03/19 01:43:04;;;;;;;37.25;0.93;;;;;;;;;;5080672;28;20501;-79
2022/03/19 01:45:30;;;;;;;6.78;0.25;;;;;;;;;;5082607;28;20031;-78
2022/03/19 01:47:56;;;;;;;0.10;0.10;;;;;;;;;;5077311;28;20752;-79
2022/03/19 01:50:23;;;;;;;16.77;1.52;;;;;;;;;;5082572;28;20512;-79
2022/03/19 01:52:49;;;;;;;0.10;0.10;;;;;;;;;;5075373;28;20028;-79
2022/03/19 01:55:16;;;;;;;0.52;0.52;;;;;;;;;;5075211;28;20023;-78
2022/03/19 01:57:43;;;;;;;0.10;0.10;;;;;;;;;;5080116;28;20028;-79
2022/03/19 02:00:11;;;;;;;0.13;0.13;;;;;;;;;;5087453;28;20035;-78
2022/03/19 02:02:37;;;;;;;2.83;0.47;;;;;;;;;;5081972;28;20097;-79
2022/03/19 02:05:04;;;;;;;0.22;0.22;;;;;;;;;;5085718;28;20028;-79
2022/03/19 02:07:31;;;;;;;0.40;0.40;;;;;;;;;;5086128;28;20066;-78
2022/03/19 02:10:00;;;;;;;0.03;0.03;;;;;;;;;;5085024;28;20036;-79
2022/03/19 02:12:27;;;;;;;0.25;0.25;;;;;;;;;;5080679;28;20032;-78
2022/03/19 02:14:53;;;;;;;0.30;0.30;;;;;;;;;;5086790;28;20032;-79
2022/03/19 02:17:19;;;;;;;0.50;0.50;;;;;;;;;;5075186;28;20088;-79
2022/03/19 02:19:52;;;;;;;3.95;1.45;;;;;;;;;;5085174;28;20110;-78
2022/03/19 02:22:18;;;;;;;0.45;0.45;;;;;;;;;;5088600;28;20035;-79
2022/03/19 02:27:30;;;;;;;2.20;1.50;;;;;;;;;;5077351;28;20458;-78
2022/03/19 02:29:57;;;;;;;0.25;0.25;;;;;;;;;;5092986;28;20051;-78
2022/03/19 02:32:23;;;;;;;6.22;0.63;;;;;;;;;;5076052;28;20407;-79
2022/03/19 02:34:49;;;;;;;1.15;0.93;;;;;;;;;;5080435;28;20522;-79
2022/03/19 02:37:15;;;;;;;0.20;0.20;;;;;;;;;;5080605;28;20060;-78
2022/03/19 02:39:40;;;;;;;0.10;0.10;;;;;;;;;;5085089;28;20028;-78
2022/03/19 02:42:07;;;;;;;5.28;2.28;;;;;;;;;;5074048;28;20060;-78
2022/03/19 02:44:33;;;;;;;1.52;0.70;;;;;;;;;;5083194;28;20028;-78
2022/03/19 02:47:00;;;;;;;0.20;0.20;;;;;;;;;;5087568;28;20016;-78
2022/03/19 02:49:26;;;;;;;0.30;0.30;;;;;;;;;;5085167;28;20077;-78
2022/03/19 02:51:53;;;;;;;0.10;0.10;;;;;;;;;;5080717;28;20474;-78
2022/03/19 02:54:20;;;;;;;6.50;1.23;;;;;;;;;;5083964;28;20028;-78
2022/03/19 02:56:47;;;;;;;0.15;0.15;;;;;;;;;;5076497;28;20029;-78
2022/03/19 02:59:15;;;;;;;0.88;0.82;;;;;;;;;;5076989;28;20032;-79
2022/03/19 03:01:41;;;;;;;0.52;0.52;;;;;;;;;;5078759;28;20038;-79
2022/03/19 03:04:07;;;;;;;0.20;0.20;;;;;;;;;;5085547;28;20025;-78
2022/03/19 03:06:43;;;;;;;0.88;0.73;;;;;;;;;;5079541;28;20067;-78
2022/03/19 03:09:13;;;;;;;2.45;0.68;;;;;;;;;;5083359;28;20040;-79
2022/03/19 03:11:39;;;;;;;0.10;0.10;;;;;;;;;;5083583;28;20031;-79
2022/03/19 03:14:06;;;;;;;0.30;0.30;;;;;;;;;;5076222;28;20032;-79
2022/03/19 03:16:33;;;;;;;0.08;0.08;;;;;;;;;;5073194;28;20071;-79
2022/03/19 03:19:01;;;;;;;1.23;0.63;;;;;;;;;;5074134;28;20024;-79
2022/03/19 03:21:27;;;;;;;0.20;0.20;;;;;;;;;;5080286;28;20052;-79
2022/03/19 03:23:56;;;;;;;0.75;0.70;;;;;;;;;;5074014;28;20052;-79
2022/03/19 03:26:23;;;;;;;0.15;0.15;;;;;;;;;;5077089;28;20564;-79
2022/03/19 03:28:49;;;;;;;1.17;1.10;;;;;;;;;;5081208;28;20089;-79
2022/03/19 03:31:15;;;;;;;0.55;0.55;;;;;;;;;;5082531;28;20380;-79
2022/03/19 03:33:41;;;;;;;5.32;1.65;;;;;;;;;;5082371;28;20088;-79
2022/03/19 03:36:07;;;;;;;0.20;0.20;;;;;;;;;;5089406;28;20024;-79
2022/03/19 03:38:33;;;;;;;0.30;0.30;;;;;;;;;;5084882;28;20032;-79
2022/03/19 03:40:59;;;;;;;0.10;0.10;;;;;;;;;;5076326;28;20048;-79
2022/03/19 03:43:25;;;;;;;0.43;0.43;;;;;;;;;;5080090;28;20024;-79
2022/03/19 03:45:51;;;;;;;0.10;0.10;;;;;;;;;;5082081;28;20028;-79
2022/03/19 03:48:17;;;;;;;0.10;0.10;;;;;;;;;;5086938;28;20036;-79
2022/03/19 03:50:43;;;;;;;0.22;0.22;;;;;;;;;;5079792;28;20032;-78
2022/03/19 03:53:09;;;;;;;0.82;0.82;;;;;;;;;;5081992;28;20425;-78
2022/03/19 03:55:36;;;;;;;9.20;0.90;;;;;;;;;;5075400;28;20173;-78
2022/03/19 03:58:03;;;;;;;0.17;0.17;;;;;;;;;;5074606;28;20031;-78
2022/03/19 04:00:29;;;;;;;0.08;0.08;;;;;;;;;;5078678;28;20375;-78
2022/03/19 04:02:55;;;;;;;0.30;0.30;;;;;;;;;;5076494;28;20031;-78
2022/03/19 04:05:21;;;;;;;10.50;2.25;;;;;;;;;;5075231;28;20093;-78
2022/03/19 04:07:47;;;;;;;0.10;0.10;;;;;;;;;;5081781;28;20040;-78
2022/03/19 04:10:13;;;;;;;0.95;0.95;;;;;;;;;;5073556;28;20056;-78
2022/03/19 04:12:39;;;;;;;0.30;0.30;;;;;;;;;;5081953;28;20051;-78
2022/03/19 04:15:06;;;;;;;0.13;0.13;;;;;;;;;;5083604;28;20043;-78
2022/03/19 04:17:32;;;;;;;0.17;0.17;;;;;;;;;;5085280;28;20038;-79
2022/03/19 04:19:58;;;;;;;0.15;0.15;;;;;;;;;;5085019;28;20024;-78
2022/03/19 04:22:24;;;;;;;0.17;0.17;;;;;;;;;;5087050;28;20134;-79
2022/03/19 04:24:50;;;;;;;1.17;0.55;;;;;;;;;;5081725;28;20031;-78
2022/03/19 04:27:16;;;;;;;0.95;0.52;;;;;;;;;;5076762;28;20024;-78
2022/03/19 04:29:42;;;;;;;0.10;0.10;;;;;;;;;;5074794;28;20031;-78
2022/03/19 04:32:08;;;;;;;0.50;0.50;;;;;;;;;;5078320;28;20028;-78
2022/03/19 04:34:34;;;;;;;1.05;0.95;;;;;;;;;;5073818;28;20031;-78
2022/03/19 04:37:00;;;;;;;0.17;0.17;;;;;;;;;;5085045;28;20028;-78
2022/03/19 04:39:26;;;;;;;0.25;0.25;;;;;;;;;;5084771;28;20572;-78
2022/03/19 04:41:52;;;;;;;0.35;0.35;;;;;;;;;;5071539;28;20025;-78
2022/03/19 04:44:18;;;;;;;0.55;0.55;;;;;;;;;;5074782;28;20475;-78
2022/03/19 04:46:44;;;;;;;0.40;0.40;;;;;;;;;;5080331;28;20031;-79
2022/03/19 04:49:10;;;;;;;0.70;0.45;;;;;;;;;;5078462;28;20085;-79
2022/03/19 04:51:38;;;;;;;10.75;1.02;;;;;;;;;;5086924;28;20028;-78
2022/03/19 04:54:04;;;;;;;2.28;1.02;;;;;;;;;;5082396;28;20029;-78
2022/03/19 04:56:30;;;;;;;2.35;0.65;;;;;;;;;;5079655;28;20082;-78
2022/03/19 04:58:57;;;;;;;0.82;0.60;;;;;;;;;;5078980;28;20134;-78
2022/03/19 05:01:30;;;;;;;2.35;2.13;;;;;;;;;;5078278;28;20393;-78
2022/03/19 05:03:57;;;;;;;1.92;1.10;;;;;;;;;;5082349;28;20040;-79
2022/03/19 05:06:23;;;;;;;0.10;0.10;;;;;;;;;;5074510;28;20055;-78
2022/03/19 05:11:12;;;;;;;0.77;0.77;;;;;;;;;;5079763;28;20024;-78
2022/03/19 05:11:38;;;;;;;4.15;2.10;;;;;;;;;;5083815;28;20036;-78
2022/03/19 05:14:04;;;;;;;2.55;1.98;;;;;;;;;;5078475;28;20039;-78
2022/03/19 05:16:31;;;;;;;0.20;0.20;;;;;;;;;;5081751;28;20043;-79
2022/03/19 05:18:57;;;;;;;0.35;0.35;;;;;;;;;;5078168;28;20115;-78
2022/03/19 05:21:22;;;;;;;0.10;0.10;;;;;;;;;;5089792;28;20020;-78
2022/03/19 05:23:48;;;;;;;0.10;0.10;;;;;;;;;;5081217;28;20356;-78
2022/03/19 05:26:14;;;;;;;1.55;0.85;;;;;;;;;;5082070;28;20102;-77
2022/03/19 05:28:40;;;;;;;0.35;0.35;;;;;;;;;;5092544;28;20202;-77
2022/03/19 05:31:08;;;;;;;0.10;0.10;;;;;;;;;;5076633;28;20032;-78
2022/03/19 05:36:19;;;;;;;0.38;0.38;;;;;;;;;;5080758;28;20059;-78
2022/03/19 05:38:45;;;;;;;0.45;0.45;;;;;;;;;;5085070;28;20667;-77
2022/03/19 05:41:11;;;;;;;0.30;0.30;;;;;;;;;;5081149;28;20053;-77
2022/03/19 05:43:38;;;;;;;12.63;0.80;;;;;;;;;;5081491;28;20028;-78
2022/03/19 05:46:04;;;;;;;1.95;0.60;;;;;;;;;;5078523;28;20025;-78
2022/03/19 05:48:30;;;;;;;0.45;0.45;;;;;;;;;;5078717;28;20048;-78
2022/03/19 05:50:56;;;;;;;0.20;0.20;;;;;;;;;;5077664;28;20059;-78
2022/03/19 05:53:22;;;;;;;0.50;0.50;;;;;;;;;;5080313;28;20067;-78
2022/03/19 05:55:48;;;;;;;0.10;0.10;;;;;;;;;;5085383;28;20051;-78
2022/03/19 05:58:14;;;;;;;0.10;0.10;;;;;;;;;;5082080;28;20375;-79
2022/03/19 06:00:40;;;;;;;2.20;2.00;;;;;;;;;;5082652;28;20020;-78
2022/03/19 06:03:06;;;;;;;0.57;0.57;;;;;;;;;;5085404;28;20043;-78
2022/03/19 06:05:31;;;;;;;1.10;1.10;;;;;;;;;;5076720;28;20117;-77
2022/03/19 06:07:59;;;;;;;0.10;0.10;;;;;;;;;;5074773;28;20032;-76
2022/03/19 06:10:25;;;;;;;0.10;0.10;;;;;;;;;;5080736;28;20493;-76
2022/03/19 06:12:50;;;;;;;2.33;1.95;;;;;;;;;;5078153;28;20032;-76
2022/03/19 06:15:16;;;;;;;0.13;0.13;;;;;;;;;;5078909;28;20032;-76
2022/03/19 06:17:42;;;;;;;0.63;0.63;;;;;;;;;;5086075;28;20513;-76
2022/03/19 06:20:08;;;;;;;0.10;0.10;;;;;;;;;;5078418;28;20020;-78
2022/03/19 06:22:34;;;;;;;0.10;0.10;;;;;;;;;;5082222;28;20471;-79
2022/03/19 06:25:00;;;;;;;0.10;0.10;;;;;;;;;;5074545;28;20037;-78
2022/03/19 06:27:26;;;;;;;1.65;0.70;;;;;;;;;;5073055;28;20093;-78
2022/03/19 06:29:52;;;;;;;0.90;0.80;;;;;;;;;;5078805;28;20698;-78
2022/03/19 06:32:20;;;;;;;0.57;0.57;;;;;;;;;;5081622;28;20102;-77
2022/03/19 06:34:48;;;;;;;0.60;0.60;;;;;;;;;;5081284;28;20089;-78
2022/03/19 06:37:20;;;;;;;0.90;0.90;;;;;;;;;;5083898;28;20032;-78
2022/03/19 06:39:47;;;;;;;0.10;0.10;;;;;;;;;;5084037;28;20112;-78
2022/03/19 06:42:13;;;;;;;1.60;1.25;;;;;;;;;;5082317;28;20031;-78
2022/03/19 06:44:39;;;;;;;0.10;0.10;;;;;;;;;;5084268;28;20016;-78
2022/03/19 06:47:05;;;;;;;0.10;0.10;;;;;;;;;;5084043;28;20021;-78
2022/03/19 06:49:32;;;;;;;0.38;0.38;;;;;;;;;;5082793;28;20039;-78
2022/03/19 06:51:58;;;;;;;0.10;0.10;;;;;;;;;;5084034;28;20040;-78
2022/03/19 06:54:24;;;;;;;0.10;0.10;;;;;;;;;;5084188;28;20024;-78
2022/03/19 06:56:52;;;;;;;0.10;0.10;;;;;;;;;;5086145;28;20055;-78
2022/03/19 06:59:18;;;;;;;5.00;2.72;;;;;;;;;;5085188;28;20024;-78
2022/03/19 07:01:44;;;;;;;2.15;0.85;;;;;;;;;;5086722;28;20020;-78
2022/03/19 07:04:09;;;;;;;0.13;0.13;;;;;;;;;;5084555;28;20022;-77
2022/03/19 07:06:35;;;;;;;0.55;0.55;;;;;;;;;;5081429;28;20439;-78
2022/03/19 07:09:01;;;;;;;0.30;0.30;;;;;;;;;;5085114;28;20028;-79
2022/03/19 07:11:27;;;;;;;0.00;0.00;;;;;;;;;;5080822;28;20059;-77
2022/03/19 07:13:53;;;;;;;0.10;0.10;;;;;;;;;;5087039;28;20024;-77
2022/03/19 07:16:19;;;;;;;0.00;0.00;;;;;;;;;;5073574;28;20032;-74
2022/03/19 07:18:45;;;;;;;0.65;0.65;;;;;;;;;;5082543;28;20612;-74
2022/03/19 07:21:12;;;;;;;0.75;0.75;;;;;;;;;;5078999;28;20507;-77
2022/03/19 07:23:38;;;;;;;0.75;0.35;;;;;;;;;;5085099;28;20033;-75
2022/03/19 07:26:04;;;;;;;0.20;0.20;;;;;;;;;;5075582;28;20163;-75
2022/03/19 07:28:30;;;;;;;0.10;0.10;;;;;;;;;;5075607;28;20364;-74
2022/03/19 07:30:57;;;;;;;0.10;0.10;;;;;;;;;;5084593;28;20039;-74
2022/03/19 07:33:23;;;;;;;0.20;0.20;;;;;;;;;;5078308;28;20036;-73
2022/03/19 07:35:49;;;;;;;1.95;1.08;;;;;;;;;;5075803;28;20033;-75
2022/03/19 07:38:14;;;;;;;0.10;0.10;;;;;;;;;;5077595;28;20025;-74
2022/03/19 07:43:25;;;;;;;0.00;0.00;;;;;;;;;;5073588;28;20043;-74
2022/03/19 07:45:52;;;;;;;0.10;0.10;;;;;;;;;;5086348;28;20432;-72
2022/03/19 07:48:18;;;;;;;0.10;0.10;;;;;;;;;;5077694;28;20496;-71
2022/03/19 07:50:44;;;;;;;0.65;0.65;;;;;;;;;;5078139;28;20058;-72
2022/03/19 07:53:10;;;;;;;0.10;0.10;;;;;;;;;;5082481;28;20031;-72
2022/03/19 07:55:36;;;;;;;0.05;0.05;;;;;;;;;;5087270;28;20504;-73
2022/03/19 07:58:03;;;;;;;0.10;0.10;;;;;;;;;;5084436;28;20092;-76
2022/03/19 08:00:34;;;;;;;0.35;0.35;;;;;;;;;;5076943;28;20028;-76
2022/03/19 08:03:00;;;;;;;0.17;0.17;;;;;;;;;;5086663;28;20414;-76
2022/03/19 08:05:29;;;;;;;0.10;0.10;;;;;;;;;;5089150;28;20312;-76
2022/03/19 08:07:55;;;;;;;0.00;0.00;;;;;;;;;;5076199;28;20039;-76
2022/03/19 08:10:21;;;;;;;0.00;0.00;;;;;;;;;;5079766;28;20024;-75
2022/03/19 08:12:48;;;;;;;0.00;0.00;;;;;;;;;;5071320;28;20070;-77
2022/03/19 08:15:14;;;;;;;0.40;0.28;;;;;;;;;;5076907;28;20119;-74
2022/03/19 08:17:43;;;;;;;0.10;0.10;;;;;;;;;;5080923;28;20102;-72
2022/03/19 08:20:09;;;;;;;1.98;0.47;;;;;;;;;;5075269;28;20024;-73
2022/03/19 08:22:38;;;;;;;0.00;0.00;;;;;;;;;;5074573;28;20131;-72
2022/03/19 08:25:04;;;;;;;0.52;0.52;;;;;;;;;;5078413;28;20051;-72
2022/03/19 08:27:30;;;;;;;0.10;0.10;;;;;;;;;;5080610;28;20163;-72
2022/03/19 08:29:56;;;;;;;0.15;0.15;;;;;;;;;;5084105;28;20024;-72
2022/03/19 08:32:22;;;;;;;0.10;0.10;;;;;;;;;;5082743;28;20036;-72
2022/03/19 08:34:49;;;;;;;0.30;0.30;;;;;;;;;;5082071;28;20028;-72
2022/03/19 08:37:15;;;;;;;0.85;0.32;;;;;;;;;;5075334;28;20024;-72
2022/03/19 08:42:25;;;;;;;1.38;0.98;;;;;;;;;;5081253;28;20046;-73
2022/03/19 08:44:51;;;;;;;1.65;0.40;;;;;;;;;;5077569;28;20300;-72
2022/03/19 08:47:17;;;;;;;3.08;1.00;;;;;;;;;;5083069;28;20540;-72
2022/03/19 08:49:43;;;;;;;0.95;0.82;;;;;;;;;;5077419;28;20028;-72
2022/03/19 08:52:10;;;;;;;0.20;0.20;;;;;;;;;;5088181;28;20024;-73
2022/03/19 08:54:36;;;;;;;0.45;0.45;;;;;;;;;;5082602;28;20459;-72
2022/03/19 08:57:02;;;;;;;0.10;0.10;;;;;;;;;;5084527;28;20097;-72
2022/03/19 08:59:28;;;;;;;0.10;0.10;;;;;;;;;;5081959;28;20024;-72
2022/03/19 09:01:54;;;;;;;1.10;1.00;;;;;;;;;;5075693;28;20099;-72
2022/03/19 09:04:21;;;;;;;0.10;0.10;;;;;;;;;;5079308;28;20031;-72
2022/03/19 09:06:48;;;;;;;0.10;0.10;;;;;;;;;;5088251;28;20044;-72
2022/03/19 09:09:16;;;;;;;1.17;1.00;;;;;;;;;;5081793;28;20033;-72
2022/03/19 09:11:42;;;;;;;0.10;0.10;;;;;;;;;;5089443;28;20020;-72
2022/03/19 09:14:09;;;;;;;0.10;0.10;;;;;;;;;;5082396;28;20669;-72
2022/03/19 09:16:37;;;;;;;0.10;0.10;;;;;;;;;;5074051;28;20039;-82
2022/03/19 09:19:03;;;;;;;0.10;0.10;;;;;;;;;;5071634;28;20029;-82
2022/03/19 09:21:30;;;;;;;0.00;0.00;;;;;;;;;;5070438;28;20031;-77
2022/03/19 09:23:57;;;;;;;0.40;0.25;;;;;;;;;;5076659;28;20078;-72
2022/03/19 09:26:23;;;;;;;2.50;0.25;;;;;;;;;;5083272;28;20128;-74
2022/03/19 09:28:50;;;;;;;0.52;0.52;;;;;;;;;;5077060;28;20076;-76
2022/03/19 09:31:16;;;;;;;0.00;0.00;;;;;;;;;;5076463;28;20094;-72
2022/03/19 09:33:42;;;;;;;0.10;0.10;;;;;;;;;;5083654;28;20033;-82
2022/03/19 09:36:08;;;;;;;0.00;0.00;;;;;;;;;;5079781;28;20031;-72
2022/03/19 09:38:43;;;;;;;0.10;0.10;;;;;;;;;;5073727;28;20422;-72
2022/03/19 09:41:09;;;;;;;0.20;0.20;;;;;;;;;;5078648;28;20495;-72
2022/03/19 09:43:35;;;;;;;3.83;0.63;;;;;;;;;;5085106;28;20032;-72
2022/03/19 09:46:04;;;;;;;0.30;0.30;;;;;;;;;;5074870;28;20025;-72
2022/03/19 09:48:31;;;;;;;0.08;0.08;;;;;;;;;;5078958;28;20055;-72
2022/03/19 09:50:59;;;;;;;0.05;0.05;;;;;;;;;;5074643;28;20028;-72
2022/03/19 09:53:25;;;;;;;0.00;0.00;;;;;;;;;;5072814;28;20035;-72
2022/03/19 09:55:58;;;;;;;0.70;0.70;;;;;;;;;;5074104;28;20070;-72
2022/03/19 09:58:25;;;;;;;0.10;0.10;;;;;;;;;;5070970;28;20025;-72
2022/03/19 10:00:51;;;;;;;0.00;0.00;;;;;;;;;;5081322;28;20025;-72
2022/03/19 10:03:22;;;;;;;0.68;0.28;;;;;;;;;;5077829;28;20088;-72
2022/03/19 10:08:43;;;;;;;0.38;0.35;;;;;;;;;;5075928;28;20608;-72
2022/03/19 10:11:16;;;;;;;0.00;0.00;;;;;;;;;;5078138;28;20028;-72
2022/03/19 10:13:42;;;;;;;0.13;0.13;;;;;;;;;;5081992;28;20020;-72
2022/03/19 10:16:09;;;;;;;2.10;0.60;;;;;;;;;;5088272;28;20123;-81
2022/03/19 10:18:35;;;;;;;0.00;0.00;;;;;;;;;;5084432;28;23466;-76
2022/03/19 10:21:02;;;;;;;2.38;0.35;;;;;;;;;;5082518;28;20030;-73
2022/03/19 10:23:32;;;;;;;4.55;1.15;;;;;;;;;;5082687;28;20024;-71
2022/03/19 10:25:57;;;;;;;0.85;0.82;;;13.70;99.70;;;;;;5080948;28;20051;-73
2022/03/19 10:28:31;;;;;;;24.25;4.65;;;14.60;97.60;;;;;;5077456;28;20021;-78
2022/03/19 10:30:57;;;;;;;22.02;5.38;;;18.60;67.70;;;;;;5072986;28;20100;-72
2022/03/19 10:33:30;;;;;;;1024.53;571.15;;;;;;;;;;5083553;28;20051;-76
2022/03/19 10:36:10;;;;;;;22.80;8.00;;;;;;;;;;5079855;28;20078;-71
2022/03/19 10:38:46;;;;;;;9.70;3.45;;;;;;;;;;5077170;28;20106;-70
2022/03/19 10:41:16;;;;;;;7.68;2.97;;;;;;;;;;5072112;28;20120;-70
2022/03/19 10:43:46;;;;;;;15.27;4.22;;;;;;;;;;5086364;28;20028;-72
2022/03/19 10:46:12;;;;;;;10.40;2.80;;;;;;;;;;5082049;28;20501;-71
2022/03/19 10:48:40;;;;;;;11.93;3.20;;;;;;;;;;5078651;28;20031;-73
2022/03/19 10:51:09;;;;;;;12.50;4.15;;;;;;;;;;5077748;28;20410;-74
2022/03/19 10:53:36;;;;;;;8.52;3.30;;;;;;;;;;5087055;28;20114;-72
2022/03/19 10:56:04;;;;;;;12.43;2.88;;;;;;;;;;5076722;28;20032;-73
2022/03/19 10:58:30;;;;;;;7.15;3.42;;;;;;;;;;5079526;28;20020;-73
2022/03/19 11:00:57;;;;;;;7.82;3.25;;;;;;;;;;5079699;28;20360;-73
2022/03/19 11:03:27;;;;;;;8.20;3.13;;;;;;;;;;5077704;28;20073;-74
2022/03/19 11:06:22;;;;;;;7.70;3.20;;;;;;;;;;5081199;28;20051;-73
2022/03/19 11:08:48;;;;;;;9.23;2.80;;;;;;;;;;5060007;28;20117;-70
2022/03/19 11:11:17;;;;;;;7.00;2.70;;;;;;;;;;5087522;28;20471;-71
2022/03/19 11:13:46;;;;;;;9.10;3.40;;;;;;;;;;5080895;28;20035;-73
2022/03/19 11:16:12;;;;;;;10.90;3.90;;;;;;;;;;5079902;28;20037;-70
2022/03/19 11:18:42;;;;;;;10.55;3.25;;;;;;;;;;5072466;28;20486;-72
2022/03/19 11:21:09;;;;;;;7.63;2.72;;;;;;;;;;5075474;28;20031;-71
2022/03/19 11:24:10;;;;;;;7.40;3.42;;;;;;;;;;5082043;28;20072;-73
2022/03/19 11:26:37;;;;;;;7.20;2.75;;;;;;;;;;5040228;28;20676;-73
2022/03/19 11:29:03;;;;;;;5.95;2.80;;;;;;;;;;5069802;28;20036;-72
2022/03/19 11:31:32;;;;;;;12.43;2.95;;;;;;;;;;5083987;28;20089;-72
2022/03/19 11:34:01;;;;;;;9.27;2.67;;;;;;;;;;5086745;28;20024;-73
2022/03/19 11:36:28;;;;;;;9.35;3.10;;;;;;;;;;5076835;28;20457;-76
2022/03/19 11:38:54;;;;;;;6.38;2.60;;;;;;;;;;5084962;28;20028;-73
2022/03/19 11:41:29;;;;;;;6.30;2.90;;;;;;;;;;5077517;28;20070;-74
2022/03/19 11:44:14;;;;;;;9.48;3.45;;;;;;;;;;5072176;28;20060;-74
2022/03/19 11:47:01;;;;;;;8.55;3.13;;;;;;;;;;5078057;28;20032;-73
2022/03/19 11:49:43;;;;;;;6.38;3.08;;;;;;;;;;5072597;28;20032;-73
2022/03/19 11:52:09;;;;;;;5.18;3.00;;;;;;;;;;5079720;28;20078;-71
2022/03/19 11:55:04;;;;;;;5.93;2.88;;;;;;;;;;5077330;28;20492;-74
2022/03/19 11:57:49;;;;;;;7.93;3.50;;;;;;;;;;5075321;28;20056;-75
2022/03/19 12:00:20;;;;;;;10.15;4.30;;;;;;;;;;5081574;28;20055;-75
2022/03/19 12:03:04;;;;;;;8.95;4.22;;;;;;;;;;5082107;28;20048;-73
2022/03/19 12:05:31;;;;;;;7.50;3.42;;;;;;;;;;5076201;28;20946;-73
2022/03/19 12:08:04;;;;;;;10.52;3.95;;;;;;;;;;5075093;28;20062;-73
2022/03/19 12:10:38;;;;;;;10.88;5.95;;;;;;;;;;5079543;28;20031;-73
2022/03/19 12:13:22;;;;;;;9.52;4.40;;;;;;;;;;5066631;28;20052;-74
2022/03/19 12:15:49;;;;;;;7.75;4.03;;;;;;;;;;5086802;28;20475;-72
2022/03/19 12:18:34;;;;;;;8.48;4.07;;;;;;;;;;5075947;28;20115;-74
2022/03/19 12:21:04;;;;;;;10.13;4.70;;;;;;;;;;5085089;28;20024;-73
2022/03/19 12:23:49;;;;;;;15.02;4.15;;;;;;;;;;5080510;28;20487;-73
2022/03/19 12:26:16;;;;;;;11.70;5.13;;;;;;;;;;5084830;28;20165;-74
2022/03/19 12:28:45;;;;;;;9.20;4.65;;;;;;;;;;5076820;28;20438;-74
2022/03/19 12:31:12;;;;;;;9.30;4.82;;;;;;;;;;5064527;28;20047;-74
2022/03/19 12:33:43;;;;;;;9.90;5.80;;;;;;;;;;5075675;28;20032;-74
2022/03/19 12:36:16;;;;;;;8.68;4.97;;;;;;;;;;5081705;28;20028;-74
2022/03/19 12:38:42;;;;;;;7.50;4.57;;;;;;;;;;5085910;28;20032;-74
2022/03/19 12:41:23;;;;;;;10.73;5.07;;;;;;;;;;5076725;28;20456;-74
2022/03/19 12:43:49;;;;;;;;;;;;;;;;;;5074406;28;20035;-75
2022/03/19 12:46:25;;;;;;;10.60;6.75;;;;;;;;;;5081895;28;19912;-74
2022/03/19 12:48:51;;;;;;;12.27;6.75;;;;;;;;;;5085707;28;20034;-73
2022/03/19 12:51:36;;;;;;;10.30;6.13;;;;;;;;;;5069195;28;20653;-74
2022/03/19 12:54:16;;;;;;;11.75;6.50;;;;;;;;;;5076286;28;20040;-74
2022/03/19 12:56:42;;;;;;;11.73;5.82;;;;;;;;;;5079478;28;20028;-74
2022/03/19 12:59:15;;;;;;;13.30;6.10;;;;;;;;;;5074199;28;20099;-73
2022/03/19 13:01:42;;;;;;;13.40;7.97;;;;;;;;;;5069174;28;20031;-74
2022/03/19 13:04:08;;;;;;;14.68;8.43;;;;;;;;;;5076239;28;20024;-74
2022/03/19 13:06:36;;;;;;;13.73;9.45;;;;;;;;;;5078315;28;20406;-74
2022/03/19 13:09:03;;;;;;;14.98;10.02;;;;;;;;;;5079657;28;20028;-73
2022/03/19 13:11:39;;;;;;;14.18;9.65;;;;;;;;;;5072744;28;20016;-74
2022/03/19 13:14:05;;;;;;;15.50;10.05;;;;;;;;;;5073548;28;20032;-74
2022/03/19 13:16:33;;;;;;;19.70;10.60;;;;;;;;;;5072546;28;20039;-74
2022/03/19 13:19:02;;;;;;;16.20;10.18;;;;;;;;;;5082241;28;20025;-74
2022/03/19 13:21:29;;;;;;;16.38;9.80;;;;;;;;;;5073936;28;20024;-75
2022/03/19 13:23:58;;;;;;;17.35;10.95;;;;;;;;;;5081955;28;20497;-74
2022/03/19 13:26:24;;;;;;;18.15;12.07;;;;;;;;;;5073719;28;20024;-74
2022/03/19 13:29:07;;;;;;;14.07;10.73;;;;;;;;;;5081431;28;20498;-75
2022/03/19 13:31:37;;;;;;;18.50;11.30;;;;;;;;;;5072994;28;20024;-74
2022/03/19 13:34:03;;;;;;;14.50;10.35;;;;;;;;;;5064902;28;20248;-74
2022/03/19 13:36:30;;;;;;;15.43;10.85;;;;;;;;;;5074671;28;20039;-74
2022/03/19 13:38:58;;;;;;;15.80;10.38;;;;;;;;;;5083285;28;20040;-74
2022/03/19 13:41:25;;;;;;;17.73;11.68;;;;;;;;;;5075351;28;20091;-74
2022/03/19 13:43:54;;;;;;;21.33;13.27;;;;;;;;;;5082716;28;20028;-74
2022/03/19 13:46:22;;;;;;;18.35;11.63;;;;;;;;;;5077405;28;20120;-74
2022/03/19 13:48:49;;;;;;;21.95;12.70;;;;;;;;;;5074183;28;20036;-73
2022/03/19 13:51:16;;;;;;;24.02;11.57;;;;;;;;;;5086193;28;20051;-74
2022/03/19 13:53:44;;;;;;;22.15;10.73;;;;;;;;;;5078312;28;20374;-74
2022/03/19 13:56:10;;;;;;;15.55;11.38;;;;;;;;;;5088016;28;20039;-74
2022/03/19 13:58:36;;;;;;;15.45;10.65;;;;;;;;;;5066438;28;20175;-73
2022/03/19 14:01:12;;;;;;;19.48;11.55;;;;;;;;;;5080626;28;20024;-73
2022/03/19 14:03:40;;;;;;;20.90;11.75;;;;;;;;;;5076176;28;20421;-73
2022/03/19 14:06:06;;;;;;;17.67;10.90;;;;;;;;;;5084624;28;20040;-73
2022/03/19 14:08:32;;;;;;;16.42;10.98;;;;;;;;;;5081383;28;20035;-73
2022/03/19 14:10:58;;;;;;;18.05;11.95;;;;;;;;;;5082265;28;20032;-74
2022/03/19 14:13:43;;;;;;;15.35;10.65;;;;;;;;;;5082668;28;20035;-73
2022/03/19 14:16:16;;;;;;;17.95;11.52;;;;;;;;;;5088950;28;20415;-74
2022/03/19 14:18:44;;;;;;;16.20;10.63;;;;;;;;;;5087357;28;20024;-74
2022/03/19 14:21:11;;;;;;;14.80;10.63;;;;;;;;;;5083774;28;20111;-73
2022/03/19 14:23:41;;;;;;;16.95;10.18;;;;;;;;;;5081565;28;20744;-74
2022/03/19 14:26:12;;;;;;;14.33;10.57;;;;;;;;;;5076283;28;20069;-74
2022/03/19 14:28:38;;;;;;;15.43;10.57;;;;;;;;;;5071085;28;20279;-74
2022/03/19 14:31:03;;;;;;;18.80;10.73;;;;;;;;;;5068356;28;20032;-74
2022/03/19 14:33:31;;;;;;;16.20;10.85;;;;;;;;;;5076769;28;20494;-73
2022/03/19 14:36:04;;;;;;;16.92;9.93;;;;;;;;;;5082239;28;20141;-74
2022/03/19 14:38:32;;;;;;;18.27;10.75;;;;;;;;;;5079718;28;20036;-74
2022/03/19 14:40:59;;;;;;;15.43;10.23;;;;;;;;;;5072998;28;20039;-73
2022/03/19 14:43:25;;;;;;;15.15;9.85;;;;;;;;;;5069900;28;20020;-73
2022/03/19 14:45:53;;;;;;;13.35;9.45;;;;;;;;;;5076450;28;20104;-73
2022/03/19 14:48:33;;;;;;;14.70;10.07;;;;;;;;;;5082252;28;20073;-73
2022/03/19 14:51:01;;;;;;;18.30;10.07;;;;;;;;;;5077481;28;20032;-73
2022/03/19 14:53:27;;;;;;;14.88;10.27;;;;;;;;;;5081106;28;20024;-74
2022/03/19 14:55:53;;;;;;;16.50;10.90;;;;;;;;;;5075216;28;20031;-73